createdAt,value
2023-04-08T00:00:59.431Z,32.71
2023-04-08T00:03:26.193Z,32.93
2023-04-08T00:05:52.965Z,32.48
2023-04-08T00:08:19.563Z,32.72
2023-04-08T00:10:46.323Z,32.82
2023-04-08T00:13:13.352Z,32.77
2023-04-08T00:15:40.125Z,32.79
2023-04-08T00:18:07.396Z,32.74
2023-04-08T00:20:34.022Z,32.74
2023-04-08T00:23:00.837Z,32.76
2023-04-08T00:25:27.435Z,32.86
2023-04-08T00:27:54.057Z,33.05
2023-04-08T00:30:21.372Z,33.00
2023-04-08T00:32:48.143Z,33.04
2023-04-08T00:35:15.154Z,33.07
2023-04-08T00:37:44.255Z,33.30
2023-04-08T00:40:11.057Z,33.08
2023-04-08T00:42:37.711Z,33.19
2023-04-08T00:45:04.775Z,33.20
2023-04-08T00:47:31.459Z,33.04
2023-04-08T00:49:58.136Z,33.09
2023-04-08T00:52:24.776Z,33.10
2023-04-08T00:54:51.389Z,33.11
2023-04-08T00:57:18.542Z,32.53
2023-04-08T00:59:45.219Z,32.97
2023-04-08T01:02:24.091Z,32.99
2023-04-08T01:04:56.288Z,32.89
2023-04-08T01:07:28.363Z,33.09
2023-04-08T01:09:56.337Z,32.89
2023-04-08T01:12:32.533Z,33.00
2023-04-08T01:15:08.643Z,33.05
2023-04-08T01:17:35.862Z,32.93
2023-04-08T01:20:04.354Z,32.99
2023-04-08T01:22:54.785Z,32.88
2023-04-08T01:25:23.561Z,33.10
2023-04-08T01:27:50.370Z,32.79
2023-04-08T01:30:20.065Z,32.90
2023-04-08T01:32:46.736Z,32.75
2023-04-08T01:35:15.791Z,32.68
2023-04-08T01:37:42.407Z,32.95
2023-04-08T01:40:09.263Z,33.04
2023-04-08T01:42:37.350Z,32.80
2023-04-08T01:45:04.239Z,33.10
2023-04-08T01:47:30.942Z,32.83
2023-04-08T01:49:57.550Z,33.06
2023-04-08T01:52:24.127Z,33.19
2023-04-08T01:54:50.735Z,32.61
2023-04-08T01:57:24.389Z,32.87
2023-04-08T01:59:52.069Z,32.88
2023-04-08T02:02:20.730Z,33.22
2023-04-08T02:04:47.476Z,33.05
2023-04-08T02:07:14.460Z,33.27
2023-04-08T02:09:41.885Z,33.35
2023-04-08T02:12:08.449Z,33.43
2023-04-08T02:14:35.245Z,33.12
2023-04-08T02:17:25.447Z,33.15
2023-04-08T02:20:11.484Z,33.23
2023-04-08T02:22:48.505Z,32.96
2023-04-08T02:25:16.053Z,33.04
2023-04-08T02:27:43.047Z,33.03
2023-04-08T02:30:11.079Z,33.06
2023-04-08T02:32:37.806Z,33.21
2023-04-08T02:35:05.119Z,33.01
2023-04-08T02:37:32.124Z,33.31
2023-04-08T02:39:58.751Z,33.46
2023-04-08T02:42:25.754Z,33.68
2023-04-08T02:44:52.957Z,33.49
2023-04-08T02:47:19.557Z,33.46
2023-04-08T02:49:46.311Z,33.42
2023-04-08T02:52:12.961Z,33.34
2023-04-08T02:54:39.523Z,33.27
2023-04-08T02:57:06.338Z,33.17
2023-04-08T02:59:32.931Z,33.15
2023-04-08T03:01:59.633Z,33.14
2023-04-08T03:04:27.062Z,33.12
2023-04-08T03:06:53.647Z,33.51
2023-04-08T03:09:20.166Z,33.42
2023-04-08T03:11:52.606Z,33.57
2023-04-08T03:14:19.240Z,33.34
2023-04-08T03:16:46.029Z,33.48
2023-04-08T03:19:12.648Z,33.47
2023-04-08T03:21:39.290Z,33.50
2023-04-08T03:24:06.067Z,33.55
2023-04-08T03:26:32.682Z,33.45
2023-04-08T03:28:59.310Z,33.57
2023-04-08T03:31:26.100Z,33.38
2023-04-08T03:33:52.729Z,33.70
2023-04-08T03:36:19.384Z,33.48
2023-04-08T03:38:46.155Z,33.42
2023-04-08T03:41:12.777Z,33.52
2023-04-08T03:43:39.464Z,33.44
2023-04-08T03:46:06.234Z,33.37
2023-04-08T03:48:32.907Z,33.44
2023-04-08T03:50:59.688Z,33.54
2023-04-08T03:53:28.072Z,33.32
2023-04-08T03:55:55.358Z,33.64
2023-04-08T03:58:21.908Z,33.75
2023-04-08T04:00:48.563Z,33.46
2023-04-08T04:03:15.255Z,33.60
2023-04-08T04:05:41.997Z,33.60
2023-04-08T04:08:09.455Z,33.37
2023-04-08T04:10:36.161Z,33.54
2023-04-08T04:13:02.680Z,33.59
2023-04-08T04:15:29.295Z,33.61
2023-04-08T04:17:55.894Z,33.58
2023-04-08T04:20:22.563Z,33.46
2023-04-08T04:22:49.134Z,33.65
2023-04-08T04:25:15.776Z,33.37
2023-04-08T04:27:42.341Z,33.30
2023-04-08T04:30:09.649Z,33.52
2023-04-08T04:32:36.566Z,33.38
2023-04-08T04:35:03.305Z,33.21
2023-04-08T04:37:29.908Z,33.37
2023-04-08T04:39:56.549Z,33.48
2023-04-08T04:42:23.184Z,33.43
2023-04-08T04:44:49.768Z,33.48
2023-04-08T04:47:16.524Z,33.51
2023-04-08T04:49:43.117Z,33.40
2023-04-08T04:52:09.701Z,33.39
2023-04-08T04:54:36.251Z,33.21
2023-04-08T04:57:02.838Z,33.50
2023-04-08T04:59:29.425Z,33.54
2023-04-08T05:01:57.585Z,33.41
2023-04-08T05:04:24.803Z,33.42
2023-04-08T05:06:51.360Z,33.49
2023-04-08T05:09:17.987Z,33.71
2023-04-08T05:11:44.525Z,33.50
2023-04-08T05:14:11.149Z,33.70
2023-04-08T05:16:38.740Z,33.73
2023-04-08T05:19:05.380Z,33.47
2023-04-08T05:21:32.607Z,33.48
2023-04-08T05:23:59.209Z,33.60
2023-04-08T05:26:26.348Z,33.28
2023-04-08T05:28:53.033Z,33.61
2023-04-08T05:31:19.943Z,33.39
2023-04-08T05:33:46.932Z,33.62
2023-04-08T05:36:13.795Z,33.49
2023-04-08T05:38:40.901Z,33.33
2023-04-08T05:41:07.503Z,33.29
2023-04-08T05:43:34.491Z,32.97
2023-04-08T05:46:01.214Z,32.99
2023-04-08T05:48:27.794Z,33.40
2023-04-08T05:50:57.321Z,33.21
2023-04-08T05:53:24.984Z,33.40
2023-04-08T05:55:51.591Z,33.34
2023-04-08T05:58:18.122Z,33.27
2023-04-08T06:00:44.761Z,33.42
2023-04-08T06:03:11.602Z,33.40
2023-04-08T06:05:38.309Z,33.17
2023-04-08T06:08:05.243Z,33.37
2023-04-08T06:10:31.849Z,33.30
2023-04-08T06:12:59.131Z,33.46
2023-04-08T06:15:26.001Z,33.72
2023-04-08T06:17:52.643Z,34.08
2023-04-08T06:20:19.261Z,33.96
2023-04-08T06:22:46.255Z,34.13
2023-04-08T06:25:12.843Z,33.83
2023-04-08T06:27:39.406Z,33.56
2023-04-08T06:30:06.941Z,33.67
2023-04-08T06:32:33.592Z,33.70
2023-04-08T06:35:00.193Z,33.34
2023-04-08T06:37:26.767Z,33.34
2023-04-08T06:39:53.328Z,33.51
2023-04-08T06:42:20.081Z,34.24
2023-04-08T06:45:20.437Z,34.40
2023-04-08T06:47:47.113Z,34.62
2023-04-08T06:50:13.786Z,34.61
2023-04-08T06:52:40.435Z,34.42
2023-04-08T06:55:10.026Z,34.40
2023-04-08T06:57:36.853Z,34.46
2023-04-08T07:00:03.610Z,34.05
2023-04-08T07:02:30.188Z,33.83
2023-04-08T07:04:56.834Z,33.63
2023-04-08T07:07:24.247Z,33.68
2023-04-08T07:09:51.444Z,33.59
2023-04-08T07:12:18.079Z,33.51
2023-04-08T07:14:44.673Z,33.48
2023-04-08T07:17:11.276Z,33.95
2023-04-08T07:19:38.056Z,33.70
2023-04-08T07:22:04.632Z,33.74
2023-04-08T07:24:31.306Z,35.22
2023-04-08T07:26:58.169Z,34.85
2023-04-08T07:29:24.826Z,34.49
2023-04-08T07:31:51.714Z,33.64
2023-04-08T07:34:18.326Z,32.83
2023-04-08T07:36:44.902Z,32.39
2023-04-08T07:39:11.579Z,31.98
2023-04-08T07:41:38.324Z,31.36
2023-04-08T07:44:04.873Z,31.80
2023-04-08T07:46:31.679Z,31.66
2023-04-08T07:48:58.555Z,31.79
2023-04-08T07:51:25.168Z,31.70
2023-04-08T07:53:51.770Z,31.81
2023-04-08T07:56:18.615Z,31.81
2023-04-08T07:58:45.388Z,31.85
2023-04-08T08:01:19.968Z,31.84
2023-04-08T08:03:47.990Z,32.14
2023-04-08T08:06:15.307Z,31.88
2023-04-08T08:08:41.904Z,31.79
2023-04-08T08:11:08.568Z,31.94
2023-04-08T08:13:35.183Z,31.58
2023-04-08T08:16:01.893Z,31.65
2023-04-08T08:18:28.451Z,32.14
2023-04-08T08:20:55.148Z,32.02
2023-04-08T08:23:22.094Z,31.93
2023-04-08T08:25:48.654Z,31.92
2023-04-08T08:28:15.208Z,31.96
2023-04-08T08:30:41.804Z,31.76
2023-04-08T08:33:08.514Z,31.99
2023-04-08T08:35:35.364Z,31.85
2023-04-08T08:38:01.918Z,32.15
2023-04-08T08:40:28.515Z,32.02
2023-04-08T08:42:55.364Z,31.93
2023-04-08T08:45:21.991Z,32.04
2023-04-08T08:47:50.865Z,31.94
2023-04-08T08:50:17.898Z,31.85
2023-04-08T08:52:51.402Z,31.99
2023-04-08T08:55:34.930Z,32.17
2023-04-08T08:58:07.960Z,32.05
2023-04-08T09:00:39.094Z,32.08
2023-04-08T09:03:16.073Z,32.04
2023-04-08T09:05:59.757Z,31.92
2023-04-08T09:08:27.053Z,32.07
2023-04-08T09:10:54.520Z,32.03
2023-04-08T09:13:23.431Z,32.14
2023-04-08T09:16:04.167Z,32.23
2023-04-08T09:18:31.369Z,32.40
2023-04-08T09:21:00.645Z,32.72
2023-04-08T09:23:42.753Z,32.57
2023-04-08T09:26:16.325Z,30.64
2023-04-08T09:28:43.943Z,30.21
2023-04-08T09:31:21.925Z,29.27
2023-04-08T09:33:56.407Z,28.95
2023-04-08T09:36:23.198Z,29.50
2023-04-08T09:38:49.777Z,29.57
2023-04-08T09:41:17.786Z,29.62
2023-04-08T09:43:49.605Z,29.55
2023-04-08T09:46:18.314Z,29.72
2023-04-08T09:48:58.575Z,29.78
2023-04-08T09:51:25.179Z,30.18
2023-04-08T09:54:00.942Z,30.24
2023-04-08T09:56:31.574Z,30.26
2023-04-08T09:58:59.683Z,30.45
2023-04-08T10:01:36.503Z,30.21
2023-04-08T10:04:03.457Z,30.44
2023-04-08T10:06:31.338Z,30.48
2023-04-08T10:08:58.229Z,30.82
2023-04-08T10:11:24.823Z,31.02
2023-04-08T10:13:51.719Z,32.12
2023-04-08T10:16:22.787Z,31.24
2023-04-08T10:18:52.792Z,31.09
2023-04-08T10:21:40.414Z,31.02
2023-04-08T10:24:08.060Z,31.51
2023-04-08T10:26:44.484Z,31.53
2023-04-08T10:29:21.383Z,31.25
2023-04-08T10:31:48.893Z,31.22
2023-04-08T10:34:19.034Z,31.33
2023-04-08T10:36:47.129Z,31.07
2023-04-08T10:39:14.728Z,30.93
2023-04-08T10:41:48.275Z,30.61
2023-04-08T10:44:22.380Z,29.79
2023-04-08T10:46:50.344Z,29.35
2023-04-08T10:49:17.561Z,28.96
2023-04-08T10:51:44.386Z,28.87
2023-04-08T10:54:12.248Z,28.88
2023-04-08T10:56:46.417Z,28.91
2023-04-08T10:59:16.387Z,28.93
2023-04-08T11:01:45.182Z,28.56
2023-04-08T11:04:16.558Z,28.80
2023-04-08T11:06:44.136Z,28.72
2023-04-08T11:09:11.090Z,28.86
2023-04-08T11:11:37.951Z,28.91
2023-04-08T11:14:05.885Z,29.16
2023-04-08T11:16:32.706Z,29.10
2023-04-08T11:18:59.654Z,29.65
2023-04-08T11:21:29.462Z,29.54
2023-04-08T11:23:56.366Z,29.21
2023-04-08T11:26:23.144Z,29.63
2023-04-08T11:28:51.468Z,29.40
2023-04-08T11:31:19.399Z,29.61
2023-04-08T11:33:48.440Z,29.58
2023-04-08T11:36:15.676Z,29.77
2023-04-08T11:38:42.357Z,29.68
2023-04-08T11:41:08.972Z,29.81
2023-04-08T11:43:36.732Z,29.74
2023-04-08T11:46:12.811Z,29.74
2023-04-08T11:48:39.785Z,29.82
2023-04-08T11:51:09.189Z,30.08
2023-04-08T11:53:38.715Z,29.98
2023-04-08T11:56:21.366Z,29.77
2023-04-08T11:58:48.003Z,30.10
2023-04-08T12:01:14.707Z,30.12
2023-04-08T12:03:55.465Z,30.25
2023-04-08T12:06:23.352Z,30.24
2023-04-08T12:08:50.503Z,30.57
2023-04-08T12:11:19.853Z,30.80
2023-04-08T12:13:46.733Z,30.34
2023-04-08T12:16:14.342Z,30.50
2023-04-08T12:18:44.773Z,30.60
2023-04-08T12:21:11.473Z,30.33
2023-04-08T12:23:38.111Z,29.97
2023-04-08T12:26:04.796Z,30.22
2023-04-08T12:28:31.351Z,30.42
2023-04-08T12:30:57.955Z,30.13
2023-04-08T12:33:24.566Z,30.25
2023-04-08T12:35:51.394Z,30.14
2023-04-08T12:38:18.127Z,30.38
2023-04-08T12:40:44.785Z,30.39
2023-04-08T12:43:11.852Z,30.60
2023-04-08T12:45:38.486Z,30.56
2023-04-08T12:48:05.131Z,30.88
2023-04-08T12:50:31.742Z,30.95
2023-04-08T12:52:58.373Z,30.76
2023-04-08T12:55:25.106Z,30.94
2023-04-08T12:57:52.390Z,30.85
2023-04-08T13:00:19.558Z,31.04
2023-04-08T13:02:46.671Z,31.14
2023-04-08T13:05:13.429Z,31.20
2023-04-08T13:07:40.509Z,31.31
2023-04-08T13:10:08.445Z,31.10
2023-04-08T13:12:35.136Z,31.15
2023-04-08T13:15:01.795Z,31.19
2023-04-08T13:17:28.571Z,31.37
2023-04-08T13:19:55.507Z,31.94
2023-04-08T13:22:22.147Z,32.14
2023-04-08T13:24:48.885Z,32.00
2023-04-08T13:27:15.603Z,33.22
2023-04-08T13:29:42.177Z,33.69
2023-04-08T13:32:08.831Z,33.45
2023-04-08T13:34:35.800Z,33.79
2023-04-08T13:37:03.158Z,33.83
2023-04-08T13:39:29.750Z,33.02
2023-04-08T13:41:56.948Z,33.37
2023-04-08T13:44:23.642Z,33.56
2023-04-08T13:46:50.791Z,32.99
2023-04-08T13:49:20.392Z,32.90
2023-04-08T13:51:47.065Z,32.18
2023-04-08T13:54:14.787Z,31.56
2023-04-08T13:56:41.330Z,31.57
2023-04-08T13:59:10.322Z,30.90
2023-04-08T14:01:37.111Z,30.63
2023-04-08T14:04:03.801Z,30.76
2023-04-08T14:06:31.103Z,30.59
2023-04-08T14:09:00.489Z,30.41
2023-04-08T14:11:29.975Z,30.18
2023-04-08T14:13:56.571Z,29.89
2023-04-08T14:16:23.243Z,29.90
2023-04-08T14:18:50.119Z,29.63
2023-04-08T14:21:18.208Z,29.39
2023-04-08T14:23:44.909Z,29.44
2023-04-08T14:26:14.301Z,29.67
2023-04-08T14:28:40.948Z,29.47
2023-04-08T14:31:07.708Z,29.80
2023-04-08T14:33:34.341Z,29.36
2023-04-08T14:36:01.134Z,29.24
2023-04-08T14:38:27.837Z,29.11
2023-04-08T14:40:54.757Z,28.94
2023-04-08T14:43:21.429Z,29.38
2023-04-08T14:45:49.966Z,29.47
2023-04-08T14:48:16.616Z,29.36
2023-04-08T14:50:43.467Z,29.15
2023-04-08T14:53:10.516Z,29.26
2023-04-08T14:55:37.200Z,28.88
2023-04-08T14:58:04.039Z,29.24
2023-04-08T15:00:30.899Z,27.92
2023-04-08T15:02:57.692Z,28.30
2023-04-08T15:05:24.414Z,28.26
2023-04-08T15:07:51.064Z,28.65
2023-04-08T15:10:17.768Z,28.52
2023-04-08T15:12:44.386Z,28.56
2023-04-08T15:15:11.260Z,28.90
2023-04-08T15:17:37.952Z,28.64
2023-04-08T15:20:05.663Z,28.60
2023-04-08T15:22:33.004Z,28.59
2023-04-08T15:24:59.583Z,28.82
2023-04-08T15:27:26.661Z,27.45
2023-04-08T15:29:53.400Z,27.24
2023-04-08T15:32:20.004Z,26.76
2023-04-08T15:34:47.380Z,26.46
2023-04-08T15:37:14.023Z,26.55
2023-04-08T15:39:41.747Z,27.05
2023-04-08T15:42:08.728Z,27.69
2023-04-08T15:44:35.393Z,27.91
2023-04-08T15:47:02.647Z,28.01
2023-04-08T15:49:29.425Z,28.10
2023-04-08T15:51:56.061Z,28.28
2023-04-08T15:54:22.594Z,28.45
2023-04-08T15:56:49.248Z,28.45
2023-04-08T15:59:16.012Z,28.61
2023-04-08T16:01:42.724Z,29.12
2023-04-08T16:04:09.704Z,28.92
2023-04-08T16:06:36.631Z,29.11
2023-04-08T16:09:03.296Z,29.30
2023-04-08T16:11:29.944Z,30.17
2023-04-08T16:13:57.319Z,29.98
2023-04-08T16:16:23.961Z,29.89
2023-04-08T16:18:50.825Z,29.65
2023-04-08T16:21:18.589Z,29.86
2023-04-08T16:23:45.212Z,29.77
2023-04-08T16:26:12.794Z,30.22
2023-04-08T16:28:39.959Z,29.51
2023-04-08T16:31:07.016Z,28.80
2023-04-08T16:33:33.803Z,28.99
2023-04-08T16:36:00.498Z,28.95
2023-04-08T16:38:27.229Z,29.25
2023-04-08T16:40:56.739Z,29.32
2023-04-08T16:43:24.753Z,29.57
2023-04-08T16:45:52.352Z,29.81
2023-04-08T16:48:19.193Z,29.93
2023-04-08T16:50:46.051Z,29.82
2023-04-08T16:53:12.683Z,29.56
2023-04-08T16:55:39.265Z,29.70
2023-04-08T16:58:06.064Z,30.00
2023-04-08T17:00:32.650Z,30.28
2023-04-08T17:03:00.643Z,30.18
2023-04-08T17:05:27.407Z,30.21
2023-04-08T17:07:56.308Z,31.01
2023-04-08T17:10:23.235Z,31.45
2023-04-08T17:12:49.858Z,31.72
2023-04-08T17:15:16.445Z,32.46
2023-04-08T17:17:43.125Z,32.54
2023-04-08T17:20:10.391Z,33.34
2023-04-08T17:22:37.030Z,34.35
2023-04-08T17:25:03.916Z,33.97
2023-04-08T17:27:30.737Z,33.69
2023-04-08T17:29:57.920Z,33.96
2023-04-08T17:32:24.886Z,33.74
2023-04-08T17:34:52.314Z,34.09
2023-04-08T17:37:18.973Z,34.19
2023-04-08T17:39:45.937Z,33.92
2023-04-08T17:42:13.150Z,33.86
2023-04-08T17:44:42.149Z,33.89
2023-04-08T17:47:08.853Z,34.01
2023-04-08T17:49:35.521Z,33.87
2023-04-08T17:52:05.983Z,33.60
2023-04-08T17:54:34.437Z,33.31
2023-04-08T17:57:01.577Z,32.98
2023-04-08T17:59:28.243Z,32.88
2023-04-08T18:01:55.139Z,33.28
2023-04-08T18:04:22.899Z,33.37
2023-04-08T18:06:49.656Z,33.05
2023-04-08T18:09:16.294Z,33.19
2023-04-08T18:11:42.892Z,32.97
2023-04-08T18:14:09.696Z,33.57
2023-04-08T18:16:36.345Z,33.20
2023-04-08T18:19:02.995Z,33.40
2023-04-08T18:21:29.600Z,33.16
2023-04-08T18:23:56.206Z,33.24
2023-04-08T18:26:22.835Z,33.48
2023-04-08T18:28:49.535Z,34.04
2023-04-08T18:31:16.680Z,33.97
2023-04-08T18:33:45.322Z,34.21
2023-04-08T18:36:12.552Z,33.90
2023-04-08T18:38:40.754Z,33.82
2023-04-08T18:41:07.649Z,34.14
2023-04-08T18:43:34.232Z,34.16
2023-04-08T18:46:03.012Z,33.92
2023-04-08T18:48:29.737Z,34.01
2023-04-08T18:50:56.727Z,34.26
2023-04-08T18:53:23.395Z,34.23
2023-04-08T18:55:51.146Z,34.27
2023-04-08T18:58:18.239Z,34.79
2023-04-08T19:00:47.885Z,34.64
2023-04-08T19:03:15.178Z,34.32
2023-04-08T19:05:42.338Z,34.70
2023-04-08T19:08:09.008Z,34.32
2023-04-08T19:10:36.110Z,34.42
2023-04-08T19:13:03.041Z,34.09
2023-04-08T19:15:30.390Z,34.29
2023-04-08T19:17:57.003Z,34.47
2023-04-08T19:20:23.819Z,34.33
2023-04-08T19:22:51.134Z,34.22
2023-04-08T19:25:18.039Z,33.94
2023-04-08T19:27:46.419Z,34.51
2023-04-08T19:30:13.418Z,34.49
2023-04-08T19:32:40.442Z,34.40
2023-04-08T19:35:07.595Z,34.29
2023-04-08T19:37:34.733Z,33.85
2023-04-08T19:40:01.458Z,34.20
2023-04-08T19:42:28.112Z,34.12
2023-04-08T19:44:55.193Z,34.51
2023-04-08T19:47:22.128Z,33.88
2023-04-08T19:49:48.823Z,34.15
2023-04-08T19:52:15.422Z,34.21
2023-04-08T19:54:43.566Z,33.88
2023-04-08T19:57:10.888Z,34.36
2023-04-08T19:59:38.150Z,34.01
2023-04-08T20:02:05.116Z,34.15
2023-04-08T20:04:32.134Z,34.42
2023-04-08T20:07:02.310Z,34.09
2023-04-08T20:09:32.628Z,34.41
2023-04-08T20:12:04.423Z,34.27
2023-04-08T20:14:35.536Z,34.20
2023-04-08T20:17:02.394Z,34.29
2023-04-08T20:19:29.016Z,34.01
2023-04-08T20:21:56.208Z,34.08
2023-04-08T20:24:26.329Z,34.25
2023-04-08T20:26:53.412Z,33.95
2023-04-08T20:29:20.063Z,34.30
2023-04-08T20:31:47.174Z,33.95
2023-04-08T20:34:14.088Z,34.05
2023-04-08T20:36:41.104Z,33.69
2023-04-08T20:39:10.839Z,33.66
2023-04-08T20:41:37.686Z,33.83
2023-04-08T20:44:06.760Z,33.85
2023-04-08T20:46:33.460Z,33.62
2023-04-08T20:49:00.107Z,33.66
2023-04-08T20:51:27.275Z,33.66
2023-04-08T20:53:53.985Z,33.92
2023-04-08T20:56:21.087Z,33.79
2023-04-08T20:58:47.698Z,33.58
2023-04-08T21:01:14.338Z,33.47
2023-04-08T21:03:41.148Z,33.40
2023-04-08T21:06:07.929Z,33.66
2023-04-08T21:08:34.508Z,33.91
2023-04-08T21:11:01.201Z,33.81
2023-04-08T21:13:27.792Z,33.84
2023-04-08T21:15:54.400Z,33.80
2023-04-08T21:18:20.993Z,33.77
2023-04-08T21:20:49.369Z,33.87
2023-04-08T21:23:16.161Z,33.81
2023-04-08T21:25:42.818Z,34.08
2023-04-08T21:28:09.364Z,33.84
2023-04-08T21:30:35.964Z,33.85
2023-04-08T21:33:02.591Z,33.61
2023-04-08T21:35:29.230Z,33.82
2023-04-08T21:37:56.341Z,33.82
2023-04-08T21:40:22.933Z,33.79
2023-04-08T21:42:49.609Z,33.58
2023-04-08T21:45:16.902Z,33.71
2023-04-08T21:47:43.712Z,33.96
2023-04-08T21:50:10.644Z,33.69
2023-04-08T21:52:37.352Z,33.83
2023-04-08T21:55:04.412Z,33.70
2023-04-08T21:57:31.247Z,33.85
2023-04-08T21:59:57.806Z,33.86
2023-04-08T22:02:24.639Z,33.96
2023-04-08T22:04:52.033Z,33.74
2023-04-08T22:07:18.666Z,33.89
2023-04-08T22:09:45.220Z,33.84
2023-04-08T22:12:11.849Z,33.88
2023-04-08T22:14:38.409Z,33.88
2023-04-08T22:17:05.048Z,33.98
2023-04-08T22:19:31.907Z,33.94
2023-04-08T22:21:58.706Z,33.85
2023-04-08T22:24:25.304Z,33.80
2023-04-08T22:26:53.012Z,34.01
2023-04-08T22:29:19.601Z,33.67
2023-04-08T22:31:46.298Z,33.70
2023-04-08T22:34:12.947Z,33.73
2023-04-08T22:36:39.626Z,33.78
2023-04-08T22:39:06.221Z,34.03
2023-04-08T22:41:32.840Z,34.05
2023-04-08T22:43:59.559Z,34.08
2023-04-08T22:46:26.576Z,33.96
2023-04-08T22:48:53.433Z,34.17
2023-04-08T22:51:20.813Z,33.85
2023-04-08T22:53:47.364Z,33.93
2023-04-08T22:56:14.019Z,33.94
2023-04-08T22:58:41.042Z,33.75
2023-04-08T23:01:14.691Z,33.79
2023-04-08T23:03:41.707Z,33.82
2023-04-08T23:06:08.367Z,33.89
2023-04-08T23:08:34.988Z,33.80
2023-04-08T23:11:01.541Z,33.80
2023-04-08T23:13:28.393Z,33.96
2023-04-08T23:15:55.113Z,34.09
2023-04-08T23:18:21.808Z,33.77
2023-04-08T23:20:55.312Z,33.96
2023-04-08T23:23:24.071Z,33.57
2023-04-08T23:25:51.180Z,33.51
2023-04-08T23:28:17.818Z,33.73
2023-04-08T23:30:44.388Z,33.92
2023-04-08T23:33:11.018Z,33.95
2023-04-08T23:35:39.212Z,33.87
2023-04-08T23:38:05.877Z,34.10
2023-04-08T23:40:32.474Z,34.17
2023-04-08T23:42:59.041Z,34.04
2023-04-08T23:45:25.584Z,34.14
2023-04-08T23:47:52.276Z,34.25
2023-04-08T23:50:20.262Z,34.24
2023-04-08T23:52:46.859Z,34.46
2023-04-08T23:55:13.524Z,34.48
2023-04-08T23:57:42.918Z,34.26
